sensor_id;sensor_type;location;lat;lon;timestamp;temperature;humidity
71039;SHT30;58692;43.212;27.908;2022-12-07T00:00:53;9.50;91.17
71039;SHT30;58692;43.212;27.908;2022-12-07T00:03:18;9.51;91.03
71039;SHT30;58692;43.212;27.908;2022-12-07T00:05:44;9.43;91.26
71039;SHT30;58692;43.212;27.908;2022-12-07T00:08:09;9.44;91.40
71039;SHT30;58692;43.212;27.908;2022-12-07T00:10:35;9.44;91.32
71039;SHT30;58692;43.212;27.908;2022-12-07T00:13:00;9.41;91.45
71039;SHT30;58692;43.212;27.908;2022-12-07T00:15:26;9.34;91.70
71039;SHT30;58692;43.212;27.908;2022-12-07T00:17:51;9.33;91.75
71039;SHT30;58692;43.212;27.908;2022-12-07T00:20:17;9.34;91.73
71039;SHT30;58692;43.212;27.908;2022-12-07T00:22:42;9.37;91.58
71039;SHT30;58692;43.212;27.908;2022-12-07T00:25:08;9.37;91.47
71039;SHT30;58692;43.212;27.908;2022-12-07T00:27:34;9.41;91.48
71039;SHT30;58692;43.212;27.908;2022-12-07T00:29:59;9.41;91.37
71039;SHT30;58692;43.212;27.908;2022-12-07T00:32:24;9.31;91.46
71039;SHT30;58692;43.212;27.908;2022-12-07T00:34:50;9.34;91.53
71039;SHT30;58692;43.212;27.908;2022-12-07T00:37:15;9.33;91.59
71039;SHT30;58692;43.212;27.908;2022-12-07T00:39:41;9.34;91.63
71039;SHT30;58692;43.212;27.908;2022-12-07T00:42:06;9.39;91.55
71039;SHT30;58692;43.212;27.908;2022-12-07T00:44:32;9.41;91.45
71039;SHT30;58692;43.212;27.908;2022-12-07T00:46:57;9.44;91.42
71039;SHT30;58692;43.212;27.908;2022-12-07T00:49:23;9.48;91.19
71039;SHT30;58692;43.212;27.908;2022-12-07T00:51:49;9.40;91.09
71039;SHT30;58692;43.212;27.908;2022-12-07T00:54:14;9.37;91.16
71039;SHT30;58692;43.212;27.908;2022-12-07T00:56:40;9.40;91.29
71039;SHT30;58692;43.212;27.908;2022-12-07T00:59:05;9.41;90.99
71039;SHT30;58692;43.212;27.908;2022-12-07T01:01:33;9.48;90.84
71039;SHT30;58692;43.212;27.908;2022-12-07T01:03:59;9.52;90.76
71039;SHT30;58692;43.212;27.908;2022-12-07T01:06:27;9.50;91.04
71039;SHT30;58692;43.212;27.908;2022-12-07T01:08:53;9.44;91.05
71039;SHT30;58692;43.212;27.908;2022-12-07T01:11:22;9.48;90.93
71039;SHT30;58692;43.212;27.908;2022-12-07T01:13:50;9.47;90.93
71039;SHT30;58692;43.212;27.908;2022-12-07T01:16:17;9.36;91.18
71039;SHT30;58692;43.212;27.908;2022-12-07T01:18:46;9.43;91.28
71039;SHT30;58692;43.212;27.908;2022-12-07T01:21:15;9.33;91.27
71039;SHT30;58692;43.212;27.908;2022-12-07T01:23:41;9.33;91.10
71039;SHT30;58692;43.212;27.908;2022-12-07T01:26:10;9.37;91.10
71039;SHT30;58692;43.212;27.908;2022-12-07T01:28:36;9.37;91.05
71039;SHT30;58692;43.212;27.908;2022-12-07T01:31:07;9.34;90.99
71039;SHT30;58692;43.212;27.908;2022-12-07T01:33:35;9.30;91.01
71039;SHT30;58692;43.212;27.908;2022-12-07T01:36:03;9.30;91.19
71039;SHT30;58692;43.212;27.908;2022-12-07T01:38:30;9.29;91.14
71039;SHT30;58692;43.212;27.908;2022-12-07T01:40:56;9.26;91.08
71039;SHT30;58692;43.212;27.908;2022-12-07T01:43:23;9.27;91.20
71039;SHT30;58692;43.212;27.908;2022-12-07T01:45:49;9.15;91.48
71039;SHT30;58692;43.212;27.908;2022-12-07T01:48:17;9.16;91.52
71039;SHT30;58692;43.212;27.908;2022-12-07T01:50:48;9.06;91.79
71039;SHT30;58692;43.212;27.908;2022-12-07T01:53:16;9.15;91.55
71039;SHT30;58692;43.212;27.908;2022-12-07T01:55:46;9.12;91.63
71039;SHT30;58692;43.212;27.908;2022-12-07T01:58:13;9.12;91.81
71039;SHT30;58692;43.212;27.908;2022-12-07T02:00:40;9.13;91.72
71039;SHT30;58692;43.212;27.908;2022-12-07T02:03:11;9.10;91.78
71039;SHT30;58692;43.212;27.908;2022-12-07T02:05:40;9.09;91.99
71039;SHT30;58692;43.212;27.908;2022-12-07T02:08:07;9.12;91.96
71039;SHT30;58692;43.212;27.908;2022-12-07T02:10:33;9.20;91.83
71039;SHT30;58692;43.212;27.908;2022-12-07T02:13:04;9.19;91.73
71039;SHT30;58692;43.212;27.908;2022-12-07T02:18:25;9.19;91.83
71039;SHT30;58692;43.212;27.908;2022-12-07T02:21:11;9.15;91.81
71039;SHT30;58692;43.212;27.908;2022-12-07T02:26:29;9.10;91.69
71039;SHT30;58692;43.212;27.908;2022-12-07T02:34:42;9.10;91.48
71039;SHT30;58692;43.212;27.908;2022-12-07T02:37:20;9.16;91.27
71039;SHT30;58692;43.212;27.908;2022-12-07T02:39:55;9.03;91.40
71039;SHT30;58692;43.212;27.908;2022-12-07T02:42:30;9.06;91.25
71039;SHT30;58692;43.212;27.908;2022-12-07T02:44:58;8.97;91.29
71039;SHT30;58692;43.212;27.908;2022-12-07T02:47:25;9.03;91.25
71039;SHT30;58692;43.212;27.908;2022-12-07T02:49:52;9.05;91.25
71039;SHT30;58692;43.212;27.908;2022-12-07T02:52:17;9.03;91.07
71039;SHT30;58692;43.212;27.908;2022-12-07T02:54:43;8.96;91.23
71039;SHT30;58692;43.212;27.908;2022-12-07T03:00:08;8.95;90.96
71039;SHT30;58692;43.212;27.908;2022-12-07T03:08:02;8.85;91.30
71039;SHT30;58692;43.212;27.908;2022-12-07T03:10:54;8.78;91.27
71039;SHT30;58692;43.212;27.908;2022-12-07T03:18:35;8.72;91.46
71039;SHT30;58692;43.212;27.908;2022-12-07T03:21:08;8.73;91.49
71039;SHT30;58692;43.212;27.908;2022-12-07T03:23:37;8.79;91.32
71039;SHT30;58692;43.212;27.908;2022-12-07T03:26:06;8.80;91.20
71039;SHT30;58692;43.212;27.908;2022-12-07T03:28:36;8.78;91.25
71039;SHT30;58692;43.212;27.908;2022-12-07T03:36:31;8.86;90.91
71039;SHT30;58692;43.212;27.908;2022-12-07T03:39:23;8.88;90.71
71039;SHT30;58692;43.212;27.908;2022-12-07T03:41:49;8.80;90.81
71039;SHT30;58692;43.212;27.908;2022-12-07T03:44:15;8.86;90.71
71039;SHT30;58692;43.212;27.908;2022-12-07T03:49:49;8.85;90.42
71039;SHT30;58692;43.212;27.908;2022-12-07T03:55:11;8.80;90.64
71039;SHT30;58692;43.212;27.908;2022-12-07T03:57:41;8.83;90.42
71039;SHT30;58692;43.212;27.908;2022-12-07T04:00:09;8.79;90.47
71039;SHT30;58692;43.212;27.908;2022-12-07T04:02:35;8.83;90.43
71039;SHT30;58692;43.212;27.908;2022-12-07T04:05:01;8.79;90.19
71039;SHT30;58692;43.212;27.908;2022-12-07T04:07:27;8.72;90.36
71039;SHT30;58692;43.212;27.908;2022-12-07T04:09:53;8.75;90.27
71039;SHT30;58692;43.212;27.908;2022-12-07T04:12:20;8.75;90.44
71039;SHT30;58692;43.212;27.908;2022-12-07T04:14:46;8.75;90.20
71039;SHT30;58692;43.212;27.908;2022-12-07T04:17:12;8.71;90.40
71039;SHT30;58692;43.212;27.908;2022-12-07T04:19:37;8.72;90.39
71039;SHT30;58692;43.212;27.908;2022-12-07T04:22:03;8.71;90.31
71039;SHT30;58692;43.212;27.908;2022-12-07T04:24:29;8.65;90.22
71039;SHT30;58692;43.212;27.908;2022-12-07T04:26:54;8.64;90.42
71039;SHT30;58692;43.212;27.908;2022-12-07T04:29:21;8.59;90.42
71039;SHT30;58692;43.212;27.908;2022-12-07T04:31:47;8.54;90.84
71039;SHT30;58692;43.212;27.908;2022-12-07T04:34:14;8.56;91.03
71039;SHT30;58692;43.212;27.908;2022-12-07T04:36:40;8.56;91.04
71039;SHT30;58692;43.212;27.908;2022-12-07T04:39:06;8.51;91.08
71039;SHT30;58692;43.212;27.908;2022-12-07T04:41:32;8.54;90.89
71039;SHT30;58692;43.212;27.908;2022-12-07T04:44:01;8.56;91.02
71039;SHT30;58692;43.212;27.908;2022-12-07T04:46:34;8.51;91.03
71039;SHT30;58692;43.212;27.908;2022-12-07T04:48:59;8.49;90.89
71039;SHT30;58692;43.212;27.908;2022-12-07T04:51:28;8.51;90.99
71039;SHT30;58692;43.212;27.908;2022-12-07T04:53:55;8.54;91.11
71039;SHT30;58692;43.212;27.908;2022-12-07T04:56:21;8.48;90.91
71039;SHT30;58692;43.212;27.908;2022-12-07T04:58:47;8.52;90.83
71039;SHT30;58692;43.212;27.908;2022-12-07T05:01:14;8.49;90.70
71039;SHT30;58692;43.212;27.908;2022-12-07T05:03:40;8.41;90.92
71039;SHT30;58692;43.212;27.908;2022-12-07T05:06:07;8.42;90.98
71039;SHT30;58692;43.212;27.908;2022-12-07T05:08:33;8.42;91.09
71039;SHT30;58692;43.212;27.908;2022-12-07T05:11:00;8.38;91.14
71039;SHT30;58692;43.212;27.908;2022-12-07T05:13:26;8.41;91.13
71039;SHT30;58692;43.212;27.908;2022-12-07T05:15:52;8.41;90.94
71039;SHT30;58692;43.212;27.908;2022-12-07T05:18:17;8.37;90.65
71039;SHT30;58692;43.212;27.908;2022-12-07T05:20:44;8.35;90.77
71039;SHT30;58692;43.212;27.908;2022-12-07T05:23:09;8.34;90.80
71039;SHT30;58692;43.212;27.908;2022-12-07T05:25:35;8.15;91.24
71039;SHT30;58692;43.212;27.908;2022-12-07T05:28:01;8.18;91.13
71039;SHT30;58692;43.212;27.908;2022-12-07T05:30:27;8.11;91.40
71039;SHT30;58692;43.212;27.908;2022-12-07T05:32:53;8.17;91.28
71039;SHT30;58692;43.212;27.908;2022-12-07T05:35:19;8.18;91.13
71039;SHT30;58692;43.212;27.908;2022-12-07T05:37:45;8.18;91.31
71039;SHT30;58692;43.212;27.908;2022-12-07T05:40:11;8.27;91.15
71039;SHT30;58692;43.212;27.908;2022-12-07T05:42:37;8.33;90.96
71039;SHT30;58692;43.212;27.908;2022-12-07T05:45:03;8.31;90.95
71039;SHT30;58692;43.212;27.908;2022-12-07T05:47:29;8.34;90.96
71039;SHT30;58692;43.212;27.908;2022-12-07T05:49:55;8.44;90.97
71039;SHT30;58692;43.212;27.908;2022-12-07T05:52:21;8.45;90.68
71039;SHT30;58692;43.212;27.908;2022-12-07T05:54:46;8.45;90.41
71039;SHT30;58692;43.212;27.908;2022-12-07T05:57:12;8.52;90.33
71039;SHT30;58692;43.212;27.908;2022-12-07T05:59:37;8.52;90.16
71039;SHT30;58692;43.212;27.908;2022-12-07T06:02:08;8.51;90.22
71039;SHT30;58692;43.212;27.908;2022-12-07T06:04:36;8.52;90.15
71039;SHT30;58692;43.212;27.908;2022-12-07T06:07:03;8.59;90.02
71039;SHT30;58692;43.212;27.908;2022-12-07T06:09:29;8.62;89.96
71039;SHT30;58692;43.212;27.908;2022-12-07T06:11:56;8.62;89.67
71039;SHT30;58692;43.212;27.908;2022-12-07T06:14:37;8.71;89.43
71039;SHT30;58692;43.212;27.908;2022-12-07T06:17:03;8.89;89.04
71039;SHT30;58692;43.212;27.908;2022-12-07T06:19:28;9.03;88.39
71039;SHT30;58692;43.212;27.908;2022-12-07T06:21:54;9.23;87.86
71039;SHT30;58692;43.212;27.908;2022-12-07T06:24:20;9.31;87.48
71039;SHT30;58692;43.212;27.908;2022-12-07T06:26:45;9.50;86.98
71039;SHT30;58692;43.212;27.908;2022-12-07T06:29:12;9.91;85.50
71039;SHT30;58692;43.212;27.908;2022-12-07T06:31:38;10.18;84.59
71039;SHT30;58692;43.212;27.908;2022-12-07T06:34:07;10.42;83.41
71039;SHT30;58692;43.212;27.908;2022-12-07T06:36:34;10.43;83.37
71039;SHT30;58692;43.212;27.908;2022-12-07T06:39:00;10.59;82.97
71039;SHT30;58692;43.212;27.908;2022-12-07T06:41:26;10.94;81.96
71039;SHT30;58692;43.212;27.908;2022-12-07T06:43:51;11.08;81.34
71039;SHT30;58692;43.212;27.908;2022-12-07T06:46:17;11.23;80.86
71039;SHT30;58692;43.212;27.908;2022-12-07T06:48:43;11.48;80.00
71039;SHT30;58692;43.212;27.908;2022-12-07T06:51:09;11.75;78.99
71039;SHT30;58692;43.212;27.908;2022-12-07T06:53:35;12.25;77.58
71039;SHT30;58692;43.212;27.908;2022-12-07T06:56:02;12.57;76.42
71039;SHT30;58692;43.212;27.908;2022-12-07T06:58:28;12.43;76.58
71039;SHT30;58692;43.212;27.908;2022-12-07T07:00:53;12.36;76.71
71039;SHT30;58692;43.212;27.908;2022-12-07T07:03:20;12.47;76.30
71039;SHT30;58692;43.212;27.908;2022-12-07T07:05:56;12.23;76.99
71039;SHT30;58692;43.212;27.908;2022-12-07T07:08:28;12.23;77.11
71039;SHT30;58692;43.212;27.908;2022-12-07T07:10:53;12.41;76.37
71039;SHT30;58692;43.212;27.908;2022-12-07T07:13:19;12.65;75.98
71039;SHT30;58692;43.212;27.908;2022-12-07T07:15:45;13.14;74.64
71039;SHT30;58692;43.212;27.908;2022-12-07T07:18:10;13.18;74.29
71039;SHT30;58692;43.212;27.908;2022-12-07T07:20:36;13.01;74.18
71039;SHT30;58692;43.212;27.908;2022-12-07T07:23:02;12.68;74.36
71039;SHT30;58692;43.212;27.908;2022-12-07T07:25:28;12.73;74.30
71039;SHT30;58692;43.212;27.908;2022-12-07T07:27:53;12.30;75.18
71039;SHT30;58692;43.212;27.908;2022-12-07T07:30:19;12.39;75.21
71039;SHT30;58692;43.212;27.908;2022-12-07T07:32:44;12.57;74.82
71039;SHT30;58692;43.212;27.908;2022-12-07T07:35:10;12.20;75.10
71039;SHT30;58692;43.212;27.908;2022-12-07T07:37:35;12.26;76.02
71039;SHT30;58692;43.212;27.908;2022-12-07T07:40:01;12.34;75.42
71039;SHT30;58692;43.212;27.908;2022-12-07T07:42:26;12.02;75.64
71039;SHT30;58692;43.212;27.908;2022-12-07T07:44:52;12.22;76.26
71039;SHT30;58692;43.212;27.908;2022-12-07T07:47:17;12.15;76.14
71039;SHT30;58692;43.212;27.908;2022-12-07T07:49:43;12.15;76.57
71039;SHT30;58692;43.212;27.908;2022-12-07T07:52:09;11.88;77.04
71039;SHT30;58692;43.212;27.908;2022-12-07T07:54:35;11.65;77.48
71039;SHT30;58692;43.212;27.908;2022-12-07T07:57:00;11.72;77.86
71039;SHT30;58692;43.212;27.908;2022-12-07T07:59:26;11.86;77.16
71039;SHT30;58692;43.212;27.908;2022-12-07T08:01:52;11.85;76.51
71039;SHT30;58692;43.212;27.908;2022-12-07T08:04:17;11.96;76.73
71039;SHT30;58692;43.212;27.908;2022-12-07T08:06:43;12.08;76.30
71039;SHT30;58692;43.212;27.908;2022-12-07T08:09:08;11.95;76.48
71039;SHT30;58692;43.212;27.908;2022-12-07T08:11:34;12.16;76.04
71039;SHT30;58692;43.212;27.908;2022-12-07T08:14:01;11.98;76.43
71039;SHT30;58692;43.212;27.908;2022-12-07T08:16:27;11.98;76.34
71039;SHT30;58692;43.212;27.908;2022-12-07T08:18:52;12.05;76.08
71039;SHT30;58692;43.212;27.908;2022-12-07T08:21:18;11.77;76.37
71039;SHT30;58692;43.212;27.908;2022-12-07T08:23:45;12.00;76.17
71039;SHT30;58692;43.212;27.908;2022-12-07T08:26:13;12.13;75.84
71039;SHT30;58692;43.212;27.908;2022-12-07T08:28:39;12.25;75.45
71039;SHT30;58692;43.212;27.908;2022-12-07T08:31:08;12.23;75.32
71039;SHT30;58692;43.212;27.908;2022-12-07T08:33:35;12.25;74.78
71039;SHT30;58692;43.212;27.908;2022-12-07T08:36:04;12.64;73.97
71039;SHT30;58692;43.212;27.908;2022-12-07T08:38:30;12.88;73.23
71039;SHT30;58692;43.212;27.908;2022-12-07T08:40:57;13.00;72.91
71039;SHT30;58692;43.212;27.908;2022-12-07T08:43:23;13.29;72.00
71039;SHT30;58692;43.212;27.908;2022-12-07T08:45:55;13.41;71.23
71039;SHT30;58692;43.212;27.908;2022-12-07T08:48:22;13.24;71.10
71039;SHT30;58692;43.212;27.908;2022-12-07T08:50:50;13.44;70.87
71039;SHT30;58692;43.212;27.908;2022-12-07T08:53:16;13.51;71.14
71039;SHT30;58692;43.212;27.908;2022-12-07T08:55:43;14.13;69.21
71039;SHT30;58692;43.212;27.908;2022-12-07T08:58:09;14.45;67.98
71039;SHT30;58692;43.212;27.908;2022-12-07T09:00:35;14.54;67.33
71039;SHT30;58692;43.212;27.908;2022-12-07T09:03:00;14.84;66.68
71039;SHT30;58692;43.212;27.908;2022-12-07T09:05:26;15.02;65.75
71039;SHT30;58692;43.212;27.908;2022-12-07T09:07:55;13.79;68.76
71039;SHT30;58692;43.212;27.908;2022-12-07T09:10:21;13.69;69.29
71039;SHT30;58692;43.212;27.908;2022-12-07T09:12:47;14.30;67.80
71039;SHT30;58692;43.212;27.908;2022-12-07T09:15:13;14.63;66.40
71039;SHT30;58692;43.212;27.908;2022-12-07T09:17:38;14.52;66.35
71039;SHT30;58692;43.212;27.908;2022-12-07T09:20:05;14.05;68.34
71039;SHT30;58692;43.212;27.908;2022-12-07T09:22:31;14.57;66.54
71039;SHT30;58692;43.212;27.908;2022-12-07T09:24:58;15.25;65.54
71039;SHT30;58692;43.212;27.908;2022-12-07T09:27:24;15.40;64.69
71039;SHT30;58692;43.212;27.908;2022-12-07T09:29:49;15.16;64.99
71039;SHT30;58692;43.212;27.908;2022-12-07T09:32:15;15.49;64.29
71039;SHT30;58692;43.212;27.908;2022-12-07T09:34:41;15.70;63.62
71039;SHT30;58692;43.212;27.908;2022-12-07T09:37:06;15.74;62.65
71039;SHT30;58692;43.212;27.908;2022-12-07T09:39:32;15.69;63.26
71039;SHT30;58692;43.212;27.908;2022-12-07T09:41:59;16.42;61.26
71039;SHT30;58692;43.212;27.908;2022-12-07T09:44:28;17.00;59.75
71039;SHT30;58692;43.212;27.908;2022-12-07T09:46:54;15.54;62.08
71039;SHT30;58692;43.212;27.908;2022-12-07T09:49:21;15.63;62.74
71039;SHT30;58692;43.212;27.908;2022-12-07T09:54:25;15.06;64.55
71039;SHT30;58692;43.212;27.908;2022-12-07T09:56:51;14.44;66.18
71039;SHT30;58692;43.212;27.908;2022-12-07T09:59:17;14.05;67.75
71039;SHT30;58692;43.212;27.908;2022-12-07T10:01:47;13.75;68.86
71039;SHT30;58692;43.212;27.908;2022-12-07T10:04:18;13.63;69.62
71039;SHT30;58692;43.212;27.908;2022-12-07T10:06:44;13.52;70.28
71039;SHT30;58692;43.212;27.908;2022-12-07T10:09:13;13.70;69.72
71039;SHT30;58692;43.212;27.908;2022-12-07T10:14:38;13.77;69.66
71039;SHT30;58692;43.212;27.908;2022-12-07T10:20:19;13.79;69.32
71039;SHT30;58692;43.212;27.908;2022-12-07T10:25:31;13.67;69.35
71039;SHT30;58692;43.212;27.908;2022-12-07T10:28:15;13.66;69.58
71039;SHT30;58692;43.212;27.908;2022-12-07T10:30:58;13.55;69.81
71039;SHT30;58692;43.212;27.908;2022-12-07T10:33:35;13.56;70.01
71039;SHT30;58692;43.212;27.908;2022-12-07T10:36:20;13.70;69.58
71039;SHT30;58692;43.212;27.908;2022-12-07T10:38:49;13.66;69.05
71039;SHT30;58692;43.212;27.908;2022-12-07T10:41:15;13.69;69.27
71039;SHT30;58692;43.212;27.908;2022-12-07T10:43:50;13.54;69.67
71039;SHT30;58692;43.212;27.908;2022-12-07T10:48:54;13.52;69.61
71039;SHT30;58692;43.212;27.908;2022-12-07T10:54:27;13.39;70.57
71039;SHT30;58692;43.212;27.908;2022-12-07T10:57:19;13.46;70.23
71039;SHT30;58692;43.212;27.908;2022-12-07T11:00:08;13.48;70.39
71039;SHT30;58692;43.212;27.908;2022-12-07T11:02:58;13.31;70.71
71039;SHT30;58692;43.212;27.908;2022-12-07T11:11:13;13.59;69.96
71039;SHT30;58692;43.212;27.908;2022-12-07T11:16:32;13.76;69.41
71039;SHT30;58692;43.212;27.908;2022-12-07T11:19:32;13.75;69.50
71039;SHT30;58692;43.212;27.908;2022-12-07T11:22:12;13.69;69.94
71039;SHT30;58692;43.212;27.908;2022-12-07T11:37:11;14.06;68.78
71039;SHT30;58692;43.212;27.908;2022-12-07T11:39:51;13.65;72.47
71039;SHT30;58692;43.212;27.908;2022-12-07T11:42:43;13.25;73.64
71039;SHT30;58692;43.212;27.908;2022-12-07T11:45:16;13.16;74.03
71039;SHT30;58692;43.212;27.908;2022-12-07T11:47:47;13.25;73.97
71039;SHT30;58692;43.212;27.908;2022-12-07T11:50:36;13.18;74.68
71039;SHT30;58692;43.212;27.908;2022-12-07T11:53:26;13.00;75.21
71039;SHT30;58692;43.212;27.908;2022-12-07T11:56:12;13.12;74.93
71039;SHT30;58692;43.212;27.908;2022-12-07T11:58:48;13.04;75.22
71039;SHT30;58692;43.212;27.908;2022-12-07T12:01:37;13.16;74.80
71039;SHT30;58692;43.212;27.908;2022-12-07T12:07:26;13.22;73.96
71039;SHT30;58692;43.212;27.908;2022-12-07T12:10:06;13.31;74.01
71039;SHT30;58692;43.212;27.908;2022-12-07T12:16:35;13.36;73.10
71039;SHT30;58692;43.212;27.908;2022-12-07T12:25:02;13.19;72.80
71039;SHT30;58692;43.212;27.908;2022-12-07T12:27:39;13.19;73.01
71039;SHT30;58692;43.212;27.908;2022-12-07T12:30:36;13.26;72.49
71039;SHT30;58692;43.212;27.908;2022-12-07T12:35:40;13.42;72.14
71039;SHT30;58692;43.212;27.908;2022-12-07T12:40:47;13.52;70.78
71039;SHT30;58692;43.212;27.908;2022-12-07T12:43:44;13.45;70.77
71039;SHT30;58692;43.212;27.908;2022-12-07T12:49:16;13.35;72.25
71039;SHT30;58692;43.212;27.908;2022-12-07T12:53:12;13.26;73.06
71039;SHT30;58692;43.212;27.908;2022-12-07T12:57:37;13.01;72.84
71039;SHT30;58692;43.212;27.908;2022-12-07T13:00:17;12.97;73.39
71039;SHT30;58692;43.212;27.908;2022-12-07T13:02:53;13.07;72.92
71039;SHT30;58692;43.212;27.908;2022-12-07T13:16:36;12.64;74.16
71039;SHT30;58692;43.212;27.908;2022-12-07T13:18:52;12.84;73.64
71039;SHT30;58692;43.212;27.908;2022-12-07T13:24:07;12.74;72.87
71039;SHT30;58692;43.212;27.908;2022-12-07T13:26:38;12.81;72.67
71039;SHT30;58692;43.212;27.908;2022-12-07T13:29:12;12.71;73.19
71039;SHT30;58692;43.212;27.908;2022-12-07T13:31:48;12.59;72.98
71039;SHT30;58692;43.212;27.908;2022-12-07T13:34:40;12.54;73.54
71039;SHT30;58692;43.212;27.908;2022-12-07T13:40:24;12.70;73.13
71039;SHT30;58692;43.212;27.908;2022-12-07T13:43:00;12.60;72.41
71039;SHT30;58692;43.212;27.908;2022-12-07T13:45:29;12.46;73.40
71039;SHT30;58692;43.212;27.908;2022-12-07T13:51:17;12.56;73.46
71039;SHT30;58692;43.212;27.908;2022-12-07T13:53:54;12.53;75.80
71039;SHT30;58692;43.212;27.908;2022-12-07T13:56:31;12.46;77.06
71039;SHT30;58692;43.212;27.908;2022-12-07T13:58:57;12.50;77.02
71039;SHT30;58692;43.212;27.908;2022-12-07T14:01:24;12.49;77.05
71039;SHT30;58692;43.212;27.908;2022-12-07T14:03:50;12.53;76.98
71039;SHT30;58692;43.212;27.908;2022-12-07T14:06:26;12.47;76.54
71039;SHT30;58692;43.212;27.908;2022-12-07T14:09:08;12.37;76.62
71039;SHT30;58692;43.212;27.908;2022-12-07T14:11:34;12.26;76.63
71039;SHT30;58692;43.212;27.908;2022-12-07T14:14:01;12.26;76.79
71039;SHT30;58692;43.212;27.908;2022-12-07T14:16:31;12.22;76.79
71039;SHT30;58692;43.212;27.908;2022-12-07T14:18:59;12.25;76.23
71039;SHT30;58692;43.212;27.908;2022-12-07T14:21:27;12.08;75.62
71039;SHT30;58692;43.212;27.908;2022-12-07T14:27:19;12.06;75.26
71039;SHT30;58692;43.212;27.908;2022-12-07T14:29:46;11.96;75.70
71039;SHT30;58692;43.212;27.908;2022-12-07T14:32:25;11.96;75.54
71039;SHT30;58692;43.212;27.908;2022-12-07T14:35:02;11.92;75.68
71039;SHT30;58692;43.212;27.908;2022-12-07T14:37:29;11.89;75.95
71039;SHT30;58692;43.212;27.908;2022-12-07T14:39:57;11.90;75.86
71039;SHT30;58692;43.212;27.908;2022-12-07T14:42:26;11.96;75.81
71039;SHT30;58692;43.212;27.908;2022-12-07T14:44:52;11.98;75.55
71039;SHT30;58692;43.212;27.908;2022-12-07T14:47:47;12.02;75.55
71039;SHT30;58692;43.212;27.908;2022-12-07T14:50:39;12.03;75.32
71039;SHT30;58692;43.212;27.908;2022-12-07T14:53:17;12.03;75.09
71039;SHT30;58692;43.212;27.908;2022-12-07T14:55:50;12.02;75.38
71039;SHT30;58692;43.212;27.908;2022-12-07T15:01:14;11.89;75.80
71039;SHT30;58692;43.212;27.908;2022-12-07T15:03:39;11.98;75.80
71039;SHT30;58692;43.212;27.908;2022-12-07T15:06:13;12.02;75.66
71039;SHT30;58692;43.212;27.908;2022-12-07T15:08:39;12.05;75.64
71039;SHT30;58692;43.212;27.908;2022-12-07T15:11:13;12.02;75.62
71039;SHT30;58692;43.212;27.908;2022-12-07T15:13:39;12.02;75.61
71039;SHT30;58692;43.212;27.908;2022-12-07T15:16:20;12.05;75.88
71039;SHT30;58692;43.212;27.908;2022-12-07T15:18:46;11.98;75.75
71039;SHT30;58692;43.212;27.908;2022-12-07T15:21:15;11.98;75.93
71039;SHT30;58692;43.212;27.908;2022-12-07T15:23:41;11.89;76.35
71039;SHT30;58692;43.212;27.908;2022-12-07T15:26:09;11.96;76.47
71039;SHT30;58692;43.212;27.908;2022-12-07T15:28:35;11.98;76.29
71039;SHT30;58692;43.212;27.908;2022-12-07T15:31:10;11.90;76.65
71039;SHT30;58692;43.212;27.908;2022-12-07T15:33:37;11.88;77.02
71039;SHT30;58692;43.212;27.908;2022-12-07T15:36:03;11.86;76.94
71039;SHT30;58692;43.212;27.908;2022-12-07T15:38:28;11.78;77.49
71039;SHT30;58692;43.212;27.908;2022-12-07T15:41:14;11.83;77.38
71039;SHT30;58692;43.212;27.908;2022-12-07T15:43:40;11.79;77.76
71039;SHT30;58692;43.212;27.908;2022-12-07T15:46:21;11.74;77.88
71039;SHT30;58692;43.212;27.908;2022-12-07T15:48:47;11.72;77.97
71039;SHT30;58692;43.212;27.908;2022-12-07T15:51:12;11.74;77.90
71039;SHT30;58692;43.212;27.908;2022-12-07T15:53:41;11.69;77.81
71039;SHT30;58692;43.212;27.908;2022-12-07T15:56:07;11.68;77.87
71039;SHT30;58692;43.212;27.908;2022-12-07T15:58:34;11.67;77.80
71039;SHT30;58692;43.212;27.908;2022-12-07T16:01:11;11.58;77.93
71039;SHT30;58692;43.212;27.908;2022-12-07T16:03:36;11.68;77.81
71039;SHT30;58692;43.212;27.908;2022-12-07T16:06:02;11.57;78.15
71039;SHT30;58692;43.212;27.908;2022-12-07T16:08:28;11.58;78.74
71039;SHT30;58692;43.212;27.908;2022-12-07T16:10:55;11.58;79.26
71039;SHT30;58692;43.212;27.908;2022-12-07T16:13:21;11.47;80.09
71039;SHT30;58692;43.212;27.908;2022-12-07T16:15:49;11.42;81.22
71039;SHT30;58692;43.212;27.908;2022-12-07T16:18:15;11.34;81.96
71039;SHT30;58692;43.212;27.908;2022-12-07T16:20:40;11.34;82.61
71039;SHT30;58692;43.212;27.908;2022-12-07T16:23:06;11.35;83.27
71039;SHT30;58692;43.212;27.908;2022-12-07T16:25:32;11.32;83.31
71039;SHT30;58692;43.212;27.908;2022-12-07T16:28:00;11.35;83.91
71039;SHT30;58692;43.212;27.908;2022-12-07T16:30:27;11.32;84.30
71039;SHT30;58692;43.212;27.908;2022-12-07T16:32:52;11.23;85.48
71039;SHT30;58692;43.212;27.908;2022-12-07T16:35:18;11.28;85.62
71039;SHT30;58692;43.212;27.908;2022-12-07T16:37:43;11.26;86.13
71039;SHT30;58692;43.212;27.908;2022-12-07T16:40:09;11.04;87.21
71039;SHT30;58692;43.212;27.908;2022-12-07T16:42:41;11.07;87.37
71039;SHT30;58692;43.212;27.908;2022-12-07T16:45:10;10.90;88.08
71039;SHT30;58692;43.212;27.908;2022-12-07T16:47:40;10.87;88.33
71039;SHT30;58692;43.212;27.908;2022-12-07T16:50:06;10.80;88.68
71039;SHT30;58692;43.212;27.908;2022-12-07T16:52:33;10.83;88.76
71039;SHT30;58692;43.212;27.908;2022-12-07T16:54:59;10.89;88.40
71039;SHT30;58692;43.212;27.908;2022-12-07T16:57:25;10.92;88.25
71039;SHT30;58692;43.212;27.908;2022-12-07T16:59:51;10.92;88.28
71039;SHT30;58692;43.212;27.908;2022-12-07T17:02:17;10.84;88.59
71039;SHT30;58692;43.212;27.908;2022-12-07T17:04:49;10.92;88.17
71039;SHT30;58692;43.212;27.908;2022-12-07T17:07:15;10.80;88.56
71039;SHT30;58692;43.212;27.908;2022-12-07T17:09:41;10.73;88.70
71039;SHT30;58692;43.212;27.908;2022-12-07T17:12:07;10.72;88.69
71039;SHT30;58692;43.212;27.908;2022-12-07T17:14:32;10.76;88.59
71039;SHT30;58692;43.212;27.908;2022-12-07T17:17:13;10.73;88.31
71039;SHT30;58692;43.212;27.908;2022-12-07T17:19:39;10.69;88.39
71039;SHT30;58692;43.212;27.908;2022-12-07T17:22:05;10.65;88.06
71039;SHT30;58692;43.212;27.908;2022-12-07T17:24:31;10.55;88.26
71039;SHT30;58692;43.212;27.908;2022-12-07T17:26:56;10.53;88.16
71039;SHT30;58692;43.212;27.908;2022-12-07T17:29:22;10.53;87.98
71039;SHT30;58692;43.212;27.908;2022-12-07T17:31:47;10.56;87.82
71039;SHT30;58692;43.212;27.908;2022-12-07T17:34:14;10.53;88.01
71039;SHT30;58692;43.212;27.908;2022-12-07T17:36:40;10.45;88.16
71039;SHT30;58692;43.212;27.908;2022-12-07T17:39:10;10.43;88.13